Time;durP1;ratioP1;P1;durP2;ratioP2;P2;SDS_P1;SDS_P2;PMS_P1;PMS_P2;Temp;Humidity;BMP_temperature;BMP_pressure;BME280_temperature;BME280_humidity;BME280_pressure;Samples;Min_cycle;Max_cycle;Signal;HPM_P1;HPM_P2
2022/02/28 00:00:52;;;;;;;8.05;4.10;;;4.60;99.90;;;;;;5033876;28;20109;-52
2022/02/28 00:03:19;;;;;;;9.88;4.70;;;4.60;99.90;;;;;;5034801;28;20026;-53
2022/02/28 00:05:45;;;;;;;7.78;4.07;;;4.60;99.90;;;;;;5035559;28;20032;-52
2022/02/28 00:08:11;;;;;;;12.75;5.28;;;4.50;99.90;;;;;;5035141;28;20026;-53
2022/02/28 00:10:36;;;;;;;9.27;5.07;;;4.50;99.90;;;;;;5034887;28;20093;-52
2022/02/28 00:13:02;;;;;;;11.88;6.15;;;4.40;99.90;;;;;;5034769;28;20021;-53
2022/02/28 00:15:28;;;;;;;9.70;5.88;;;4.30;99.90;;;;;;5035112;28;20387;-52
2022/02/28 00:17:54;;;;;;;11.13;5.95;;;4.30;99.90;;;;;;5034868;28;20033;-52
2022/02/28 00:20:19;;;;;;;9.05;4.97;;;4.20;99.90;;;;;;5034571;28;20033;-54
2022/02/28 00:22:45;;;;;;;10.52;4.97;;;4.20;99.90;;;;;;5034645;28;20082;-53
2022/02/28 00:25:12;;;;;;;11.70;5.15;;;4.10;99.90;;;;;;5034811;28;20087;-53
2022/02/28 00:27:38;;;;;;;10.60;5.97;;;4.10;99.90;;;;;;5034131;28;20040;-53
2022/02/28 00:30:07;;;;;;;12.15;5.95;;;4.10;99.90;;;;;;5034236;28;20025;-52
2022/02/28 00:32:33;;;;;;;13.07;8.45;;;4.10;99.90;;;;;;5033449;28;20398;-53
2022/02/28 00:34:59;;;;;;;12.95;7.55;;;4.20;99.90;;;;;;5034402;28;20403;-52
2022/02/28 00:37:25;;;;;;;12.82;6.60;;;4.20;99.90;;;;;;5034277;28;20518;-53
2022/02/28 00:39:51;;;;;;;10.55;5.97;;;4.10;99.90;;;;;;5034600;28;20029;-52
2022/02/28 00:42:16;;;;;;;10.32;5.47;;;4.10;99.90;;;;;;5034337;28;20060;-52
2022/02/28 00:44:44;;;;;;;13.38;5.20;;;4.00;99.90;;;;;;5034490;28;20060;-53
2022/02/28 00:47:09;;;;;;;6.68;4.88;;;4.00;99.90;;;;;;5034201;28;20132;-52
2022/02/28 00:49:35;;;;;;;6.95;4.47;;;4.00;99.90;;;;;;5033599;28;20096;-52
2022/02/28 00:52:01;;;;;;;9.05;4.70;;;3.80;99.90;;;;;;5033277;28;20032;-52
2022/02/28 00:54:30;;;;;;;7.57;4.28;;;3.80;99.90;;;;;;5033817;28;20021;-53
2022/02/28 00:56:57;;;;;;;9.50;5.03;;;3.80;99.90;;;;;;5032514;28;20034;-52
2022/02/28 00:59:22;;;;;;;9.23;5.68;;;3.80;99.90;;;;;;5033717;28;20371;-54
2022/02/28 01:01:48;;;;;;;9.73;4.90;;;3.80;99.90;;;;;;5033564;28;20087;-54
2022/02/28 01:04:14;;;;;;;10.07;4.93;;;3.80;99.90;;;;;;5032786;28;20029;-55
2022/02/28 01:06:40;;;;;;;8.02;4.70;;;3.80;99.90;;;;;;5032314;28;20464;-52
2022/02/28 01:09:06;;;;;;;8.93;4.50;;;3.70;99.90;;;;;;5033717;28;20425;-52
2022/02/28 01:11:33;;;;;;;9.70;4.93;;;3.60;99.90;;;;;;5033241;28;20013;-54
2022/02/28 01:13:59;;;;;;;13.52;5.53;;;3.60;99.90;;;;;;5033704;28;20025;-52
2022/02/28 01:16:25;;;;;;;9.70;5.47;;;3.60;99.90;;;;;;5033271;28;20045;-52
2022/02/28 01:18:51;;;;;;;10.13;5.43;;;3.60;99.90;;;;;;5033016;28;20032;-54
2022/02/28 01:21:17;;;;;;;11.55;6.18;;;3.60;99.90;;;;;;5033910;28;20116;-55
2022/02/28 01:23:43;;;;;;;10.65;5.97;;;3.60;99.90;;;;;;5032873;28;20104;-52
2022/02/28 01:26:09;;;;;;;11.23;6.20;;;3.50;99.90;;;;;;5032538;28;20084;-52
2022/02/28 01:28:35;;;;;;;8.60;4.95;;;3.50;99.90;;;;;;5032394;28;20029;-54
2022/02/28 01:31:01;;;;;;;9.98;4.82;;;3.50;99.90;;;;;;5032219;28;20410;-55
2022/02/28 01:33:27;;;;;;;6.47;4.38;;;3.50;99.90;;;;;;5033450;28;20083;-52
2022/02/28 01:35:52;;;;;;;8.60;4.72;;;3.60;99.90;;;;;;5033625;28;20024;-53
2022/02/28 01:38:18;;;;;;;10.27;5.38;;;3.60;99.90;;;;;;5033707;28;20060;-53
2022/02/28 01:40:44;;;;;;;9.55;4.82;;;3.60;99.90;;;;;;5033800;28;20083;-53
2022/02/28 01:43:09;;;;;;;10.48;4.72;;;3.60;99.90;;;;;;5033517;28;20108;-53
2022/02/28 01:45:36;;;;;;;11.00;4.65;;;3.50;99.90;;;;;;5033518;28;20083;-53
2022/02/28 01:48:01;;;;;;;9.30;4.80;;;3.50;99.90;;;;;;5032947;28;20427;-53
2022/02/28 01:50:28;;;;;;;8.93;4.65;;;3.40;99.90;;;;;;5032972;28;20021;-53
2022/02/28 01:52:54;;;;;;;10.27;5.57;;;3.40;99.90;;;;;;5032709;28;20752;-53
2022/02/28 01:55:22;;;;;;;8.15;4.45;;;3.40;99.90;;;;;;5032354;28;20030;-53
2022/02/28 01:57:48;;;;;;;8.32;4.88;;;3.40;99.90;;;;;;5032122;28;20013;-53
2022/02/28 02:00:17;;;;;;;10.68;5.13;;;3.30;99.90;;;;;;5032963;28;20075;-53
2022/02/28 02:02:43;;;;;;;10.80;4.80;;;3.20;99.90;;;;;;5032839;28;20033;-53
2022/02/28 02:05:10;;;;;;;10.45;5.10;;;3.10;99.90;;;;;;5032710;28;20034;-53
2022/02/28 02:07:36;;;;;;;7.95;4.88;;;3.10;99.90;;;;;;5031228;28;20113;-53
2022/02/28 02:10:05;;;;;;;10.95;4.88;;;3.00;99.90;;;;;;5032176;28;20025;-54
2022/02/28 02:12:31;;;;;;;8.80;4.82;;;3.00;99.90;;;;;;5032207;28;20584;-54
2022/02/28 02:14:58;;;;;;;8.82;5.10;;;2.90;99.90;;;;;;5030880;28;20112;-53
2022/02/28 02:17:24;;;;;;;8.73;5.10;;;2.90;99.90;;;;;;5032539;28;20029;-53
2022/02/28 02:19:53;;;;;;;7.88;4.63;;;2.80;99.90;;;;;;5033132;28;20037;-53
2022/02/28 02:22:22;;;;;;;8.23;4.85;;;2.70;99.90;;;;;;5032367;28;20530;-53
2022/02/28 02:24:51;;;;;;;10.63;5.28;;;2.50;99.90;;;;;;5031910;28;20025;-53
2022/02/28 02:27:17;;;;;;;9.75;5.20;;;2.40;99.90;;;;;;5032509;28;20029;-53
2022/02/28 02:29:43;;;;;;;11.95;5.82;;;2.40;99.90;;;;;;5032386;28;20033;-53
2022/02/28 02:32:15;;;;;;;9.93;5.15;;;2.30;99.90;;;;;;5032280;28;20452;-53
2022/02/28 02:34:41;;;;;;;8.32;5.43;;;2.40;99.90;;;;;;5032801;28;20036;-53
2022/02/28 02:37:07;;;;;;;9.35;5.57;;;2.30;99.90;;;;;;5032683;28;20107;-52
2022/02/28 02:39:33;;;;;;;9.10;5.22;;;2.30;99.90;;;;;;5031807;28;20486;-53
2022/02/28 02:41:59;;;;;;;9.48;5.47;;;2.20;99.90;;;;;;5032713;28;20096;-53
2022/02/28 02:44:35;;;;;;;11.77;4.90;;;2.30;99.90;;;;;;5032832;28;20060;-53
2022/02/28 02:47:01;;;;;;;13.13;5.18;;;2.30;99.90;;;;;;5032633;28;20021;-53
2022/02/28 02:49:28;;;;;;;15.07;6.57;;;2.10;99.90;;;;;;5032630;28;20031;-52
2022/02/28 02:51:54;;;;;;;15.63;8.40;;;2.00;99.90;;;;;;5032594;28;20029;-52
2022/02/28 02:54:20;;;;;;;12.85;5.88;;;1.90;99.90;;;;;;5032251;28;20483;-53
2022/02/28 02:56:45;;;;;;;10.68;5.50;;;1.80;99.90;;;;;;5032425;28;20104;-53
2022/02/28 02:59:11;;;;;;;7.30;5.43;;;1.70;99.90;;;;;;5032201;28;20087;-53
2022/02/28 03:01:37;;;;;;;9.68;5.63;;;1.70;99.90;;;;;;5032119;28;20064;-53
2022/02/28 03:04:03;;;;;;;10.52;5.47;;;1.70;99.90;;;;;;5032083;28;20037;-52
2022/02/28 03:06:28;;;;;;;12.70;7.00;;;1.60;99.90;;;;;;5032253;28;20021;-52
2022/02/28 03:08:54;;;;;;;12.75;6.88;;;1.40;99.90;;;;;;5032193;28;20032;-53
2022/02/28 03:11:20;;;;;;;10.20;6.57;;;1.30;99.90;;;;;;5032401;28;20144;-53
2022/02/28 03:13:45;;;;;;;11.02;6.60;;;1.30;99.90;;;;;;5032485;28;20021;-52
2022/02/28 03:16:11;;;;;;;12.80;6.45;;;1.30;99.90;;;;;;5031721;28;20033;-53
2022/02/28 03:18:37;;;;;;;10.63;6.78;;;1.30;99.90;;;;;;5032493;28;20040;-53
2022/02/28 03:21:02;;;;;;;10.07;5.70;;;1.30;99.90;;;;;;5032674;28;20529;-52
2022/02/28 03:23:28;;;;;;;13.57;6.93;;;1.10;99.90;;;;;;5032130;28;20659;-53
2022/02/28 03:25:54;;;;;;;11.27;5.78;;;1.10;99.90;;;;;;5032270;28;20033;-55
2022/02/28 03:28:20;;;;;;;9.45;6.05;;;1.00;99.90;;;;;;5031644;28;20040;-53
2022/02/28 03:30:46;;;;;;;9.98;5.78;;;1.10;99.90;;;;;;5031869;28;20290;-52
2022/02/28 03:33:12;;;;;;;12.38;5.35;;;1.10;99.90;;;;;;5032148;28;20017;-52
2022/02/28 03:35:38;;;;;;;10.38;6.10;;;1.10;99.90;;;;;;5034467;28;20502;-52
2022/02/28 03:38:03;;;;;;;11.13;5.78;;;1.20;99.90;;;;;;5035835;28;20103;-53
2022/02/28 03:40:29;;;;;;;10.82;6.32;;;1.10;99.90;;;;;;5033697;28;20413;-52
2022/02/28 03:42:57;;;;;;;8.82;6.07;;;1.10;99.90;;;;;;5035957;28;20033;-52
2022/02/28 03:45:24;;;;;;;12.43;5.45;;;1.20;99.90;;;;;;5035827;28;20026;-52
2022/02/28 03:47:49;;;;;;;10.35;5.68;;;1.30;99.90;;;;;;5035356;28;20029;-52
2022/02/28 03:50:15;;;;;;;9.02;5.57;;;1.50;99.90;;;;;;5033892;28;20081;-52
2022/02/28 03:52:44;;;;;;;9.95;5.82;;;1.60;99.90;;;;;;5035259;28;20025;-52
2022/02/28 03:55:11;;;;;;;11.80;5.63;;;1.60;99.90;;;;;;5035515;28;20045;-52
2022/02/28 03:57:37;;;;;;;11.32;5.25;;;1.60;99.90;;;;;;5035674;28;20029;-55
2022/02/28 04:00:05;;;;;;;11.07;5.22;;;1.70;99.90;;;;;;5035315;28;20108;-52
2022/02/28 04:02:30;;;;;;;8.25;5.25;;;1.80;99.90;;;;;;5035062;28;20028;-52
2022/02/28 04:04:56;;;;;;;10.40;5.78;;;1.90;99.90;;;;;;5033778;28;20022;-53
2022/02/28 04:07:22;;;;;;;7.80;5.22;;;1.80;99.90;;;;;;5035653;28;20517;-53
2022/02/28 04:09:48;;;;;;;9.30;4.80;;;1.80;99.90;;;;;;5035381;28;20026;-52
2022/02/28 04:12:14;;;;;;;8.98;4.78;;;1.90;99.90;;;;;;5035108;28;20036;-52
2022/02/28 04:14:40;;;;;;;7.28;4.68;;;1.90;99.90;;;;;;5035224;28;20028;-52
2022/02/28 04:17:06;;;;;;;10.02;5.22;;;1.90;99.90;;;;;;5034447;28;20045;-52
2022/02/28 04:19:32;;;;;;;9.23;5.35;;;2.00;99.90;;;;;;5034932;28;20056;-52
2022/02/28 04:21:58;;;;;;;8.27;5.03;;;1.90;99.90;;;;;;5032856;28;20030;-52
2022/02/28 04:24:24;;;;;;;10.05;5.47;;;1.90;99.90;;;;;;5034871;28;20109;-52
2022/02/28 04:26:50;;;;;;;8.40;4.82;;;1.80;99.90;;;;;;5034560;28;20025;-52
2022/02/28 04:29:15;;;;;;;16.65;5.68;;;1.80;99.90;;;;;;5034973;28;20021;-52
2022/02/28 04:31:41;;;;;;;11.07;6.07;;;1.90;99.90;;;;;;5034625;28;20045;-52
2022/02/28 04:34:07;;;;;;;10.30;5.90;;;1.90;99.90;;;;;;5035150;28;20268;-52
2022/02/28 04:36:34;;;;;;;9.00;5.28;;;1.80;99.90;;;;;;5034375;28;20096;-52
2022/02/28 04:38:59;;;;;;;8.77;5.22;;;1.80;99.90;;;;;;5034253;28;20024;-52
2022/02/28 04:41:25;;;;;;;11.98;5.65;;;1.70;99.90;;;;;;5033865;28;20030;-52
2022/02/28 04:43:51;;;;;;;13.30;5.47;;;1.70;99.90;;;;;;5034539;28;20026;-53
2022/02/28 04:46:17;;;;;;;10.45;5.70;;;1.70;99.90;;;;;;5032956;28;20025;-52
2022/02/28 04:48:43;;;;;;;12.10;5.50;;;1.70;99.90;;;;;;5034155;28;20112;-52
2022/02/28 04:51:08;;;;;;;10.77;6.07;;;1.70;99.90;;;;;;5033230;28;20022;-52
2022/02/28 04:53:35;;;;;;;10.15;5.78;;;1.70;99.90;;;;;;5034352;28;20032;-52
2022/02/28 04:56:00;;;;;;;8.88;5.45;;;1.70;99.90;;;;;;5033897;28;20084;-52
2022/02/28 04:58:26;;;;;;;9.20;5.15;;;1.70;99.90;;;;;;5034326;28;20068;-52
2022/02/28 05:00:52;;;;;;;10.00;5.18;;;1.70;99.90;;;;;;5033863;28;20394;-52
2022/02/28 05:03:18;;;;;;;11.75;5.57;;;1.70;99.90;;;;;;5033615;28;20018;-52
2022/02/28 05:05:44;;;;;;;9.68;5.72;;;1.60;99.90;;;;;;5034628;28;20048;-52
2022/02/28 05:08:10;;;;;;;12.05;6.32;;;1.60;99.90;;;;;;5033905;28;20034;-53
2022/02/28 05:10:36;;;;;;;10.73;6.25;;;1.50;99.90;;;;;;5033998;28;20021;-52
2022/02/28 05:13:02;;;;;;;12.60;6.38;;;1.40;99.90;;;;;;5033052;28;20029;-52
2022/02/28 05:15:28;;;;;;;13.43;6.95;;;1.20;99.90;;;;;;5033894;28;20151;-52
2022/02/28 05:17:53;;;;;;;12.77;6.47;;;1.10;99.90;;;;;;5033998;28;20503;-53
2022/02/28 05:20:19;;;;;;;12.10;6.43;;;1.10;99.90;;;;;;5033627;28;20066;-54
2022/02/28 05:22:45;;;;;;;13.20;6.45;;;1.10;99.90;;;;;;5032511;28;20025;-55
2022/02/28 05:25:11;;;;;;;11.20;5.97;;;1.00;99.90;;;;;;5033577;28;20009;-54
2022/02/28 05:27:43;;;;;;;10.77;6.05;;;1.00;99.90;;;;;;5033113;28;20021;-53
2022/02/28 05:30:10;;;;;;;;;;;1.20;99.90;;;;;;5033952;28;20018;-53
2022/02/28 05:32:37;;;;;;;10.02;5.80;;;1.40;99.90;;;;;;5033765;28;19913;-54
2022/02/28 05:35:06;;;;;;;8.10;5.97;;;1.50;99.90;;;;;;5033004;28;20025;-54
2022/02/28 05:37:31;;;;;;;14.80;6.57;;;1.50;99.90;;;;;;5032751;28;20033;-54
2022/02/28 05:39:57;;;;;;;12.63;6.93;;;1.60;99.90;;;;;;5033019;28;20036;-54
2022/02/28 05:42:23;;;;;;;13.32;7.15;;;1.60;99.90;;;;;;5032722;28;20029;-54
2022/02/28 05:44:48;;;;;;;11.50;7.13;;;1.70;99.90;;;;;;5033070;28;20026;-53
2022/02/28 05:47:14;;;;;;;11.95;6.55;;;1.80;99.90;;;;;;5033265;28;20414;-54
2022/02/28 05:49:39;;;;;;;12.65;6.43;;;1.80;99.90;;;;;;5033652;28;20078;-55
2022/02/28 05:52:05;;;;;;;12.43;6.57;;;1.80;99.90;;;;;;5033683;28;20086;-54
2022/02/28 05:54:31;;;;;;;12.32;6.50;;;1.80;99.90;;;;;;5033611;28;20030;-54
2022/02/28 05:56:57;;;;;;;12.80;7.15;;;1.80;99.90;;;;;;5033164;28;20026;-54
2022/02/28 05:59:23;;;;;;;11.73;6.35;;;1.80;99.90;;;;;;5032123;28;20124;-54
2022/02/28 06:01:49;;;;;;;9.20;5.93;;;1.80;99.90;;;;;;5033177;28;20026;-53
2022/02/28 06:04:15;;;;;;;13.02;6.15;;;1.70;99.90;;;;;;5032789;28;20470;-54
2022/02/28 06:06:40;;;;;;;9.07;6.32;;;1.50;99.90;;;;;;5032868;28;20119;-54
2022/02/28 06:09:06;;;;;;;14.88;6.22;;;1.50;99.90;;;;;;5032232;28;20032;-54
2022/02/28 06:11:32;;;;;;;14.45;6.13;;;1.50;99.90;;;;;;5031860;28;20502;-53
2022/02/28 06:13:59;;;;;;;11.00;6.50;;;1.60;99.90;;;;;;5032147;28;20022;-54
2022/02/28 06:16:24;;;;;;;12.02;6.63;;;1.60;99.90;;;;;;5031766;28;20053;-53
2022/02/28 06:18:50;;;;;;;11.40;7.07;;;1.50;99.90;;;;;;5032461;28;20549;-54
2022/02/28 06:21:16;;;;;;;11.68;7.15;;;1.40;99.90;;;;;;5031930;28;20376;-54
2022/02/28 06:23:42;;;;;;;13.52;6.63;;;1.40;99.90;;;;;;5032657;28;20487;-53
2022/02/28 06:26:09;;;;;;;12.35;6.35;;;1.30;99.90;;;;;;5032568;28;20398;-53
2022/02/28 06:28:35;;;;;;;11.60;6.50;;;1.40;99.90;;;;;;5032608;28;20030;-53
2022/02/28 06:31:01;;;;;;;16.02;6.88;;;1.50;99.90;;;;;;5032428;28;20045;-53
2022/02/28 06:33:27;;;;;;;12.82;6.60;;;1.50;99.90;;;;;;5032791;28;20483;-53
2022/02/28 06:35:52;;;;;;;12.02;6.97;;;1.50;99.90;;;;;;5032663;28;20024;-53
2022/02/28 06:38:19;;;;;;;12.77;7.28;;;1.40;99.90;;;;;;5031995;28;20036;-53
2022/02/28 06:40:46;;;;;;;11.93;7.00;;;1.30;99.90;;;;;;5031317;28;20036;-54
2022/02/28 06:43:17;;;;;;;13.95;7.13;;;1.30;99.90;;;;;;5031690;28;20568;-55
2022/02/28 06:45:45;;;;;;;10.93;6.80;;;1.20;99.90;;;;;;5030960;28;20486;-53
2022/02/28 06:48:11;;;;;;;18.50;7.38;;;1.20;99.90;;;;;;5032189;28;20038;-53
2022/02/28 06:50:36;;;;;;;9.85;6.88;;;1.10;99.90;;;;;;5032339;28;20112;-53
2022/02/28 06:53:02;;;;;;;14.63;7.47;;;1.20;99.90;;;;;;5031654;28;20033;-53
2022/02/28 06:55:28;;;;;;;13.40;7.95;;;1.30;99.90;;;;;;5031585;28;20044;-53
2022/02/28 06:57:54;;;;;;;12.35;7.28;;;1.40;99.90;;;;;;5030506;28;20403;-53
2022/02/28 07:00:19;;;;;;;11.85;7.30;;;1.40;99.90;;;;;;5031481;28;20028;-53
2022/02/28 07:02:45;;;;;;;14.57;7.60;;;1.50;99.90;;;;;;5031364;28;20643;-53
2022/02/28 07:05:11;;;;;;;10.70;6.70;;;1.60;99.90;;;;;;5031056;28;20040;-53
2022/02/28 07:07:37;;;;;;;13.48;7.35;;;1.60;99.90;;;;;;5030702;28;20504;-54
2022/02/28 07:10:04;;;;;;;12.15;7.80;;;1.70;99.90;;;;;;5032996;28;20037;-53
2022/02/28 07:12:30;;;;;;;13.60;7.43;;;1.70;99.90;;;;;;5033894;28;20110;-53
2022/02/28 07:14:56;;;;;;;11.98;7.65;;;1.70;99.90;;;;;;5035674;28;20061;-53
2022/02/28 07:17:22;;;;;;;9.95;7.03;;;1.70;99.90;;;;;;5034917;28;20086;-53
2022/02/28 07:19:47;;;;;;;10.65;7.15;;;1.80;99.90;;;;;;5035124;28;20100;-53
2022/02/28 07:22:13;;;;;;;14.57;7.80;;;1.80;99.90;;;;;;5035074;28;20029;-53
2022/02/28 07:24:38;;;;;;;15.15;7.10;;;1.90;99.90;;;;;;5035139;28;20555;-54
2022/02/28 07:27:04;;;;;;;15.18;7.55;;;1.90;99.90;;;;;;5035020;28;20032;-53
2022/02/28 07:29:29;;;;;;;16.95;6.88;;;1.90;99.90;;;;;;5035277;28;20029;-53
2022/02/28 07:31:56;;;;;;;13.27;7.57;;;1.90;99.90;;;;;;5035285;28;20053;-53
2022/02/28 07:34:22;;;;;;;11.57;7.82;;;1.90;99.90;;;;;;5035165;28;20064;-53
2022/02/28 07:36:47;;;;;;;14.02;7.90;;;2.00;99.90;;;;;;5033426;28;20025;-53
2022/02/28 07:39:13;;;;;;;13.93;7.40;;;2.00;99.90;;;;;;5034662;28;20383;-54
2022/02/28 07:41:39;;;;;;;12.27;6.88;;;2.10;99.90;;;;;;5034625;28;20026;-54
2022/02/28 07:44:05;;;;;;;14.10;7.70;;;2.20;99.90;;;;;;5034958;28;20029;-53
2022/02/28 07:46:31;;;;;;;15.65;7.90;;;2.30;99.90;;;;;;5034780;28;20026;-53
2022/02/28 07:48:56;;;;;;;13.38;8.05;;;2.30;99.90;;;;;;5034754;28;20030;-54
2022/02/28 07:51:22;;;;;;;17.42;8.00;;;2.50;99.90;;;;;;5034074;28;20030;-53
2022/02/28 07:53:48;;;;;;;13.50;7.90;;;2.50;99.90;;;;;;5034550;28;20123;-53
2022/02/28 07:56:13;;;;;;;14.10;8.13;;;2.60;99.90;;;;;;5034465;28;20386;-53
2022/02/28 07:58:39;;;;;;;15.23;8.43;;;2.70;99.90;;;;;;5034553;28;20033;-54
2022/02/28 08:01:05;;;;;;;12.93;7.72;;;2.70;99.90;;;;;;5034528;28;20045;-53
2022/02/28 08:03:30;;;;;;;17.08;8.30;;;2.80;99.90;;;;;;5034413;28;20072;-53
2022/02/28 08:05:56;;;;;;;14.38;9.02;;;2.80;99.90;;;;;;5034550;28;20034;-53
2022/02/28 08:08:22;;;;;;;16.33;8.88;;;2.90;99.90;;;;;;5043383;28;20029;-54
2022/02/28 08:10:47;;;;;;;14.38;8.88;;;2.90;99.90;;;;;;5053435;28;20409;-53
2022/02/28 08:13:13;;;;;;;19.25;10.10;;;3.00;99.90;;;;;;5052858;28;20017;-53
2022/02/28 08:15:40;;;;;;;17.13;8.85;;;3.10;99.90;;;;;;5053181;28;20113;-53
2022/02/28 08:18:07;;;;;;;18.00;9.63;;;3.30;99.90;;;;;;5053662;28;20035;-53
2022/02/28 08:20:33;;;;;;;15.18;9.20;;;3.30;99.90;;;;;;5052329;28;20025;-53
2022/02/28 08:23:01;;;;;;;19.65;9.30;;;3.40;99.90;;;;;;5051874;28;20048;-53
2022/02/28 08:25:26;;;;;;;16.95;9.23;;;3.90;99.90;;;;;;5052915;28;20033;-53
2022/02/28 08:27:52;;;;;;;13.63;8.15;;;5.00;99.90;;;;;;5052075;28;20070;-53
2022/02/28 08:30:18;;;;;;;16.02;8.20;;;6.10;99.90;;;;;;5052360;28;20028;-53
2022/02/28 08:32:44;;;;;;;14.52;7.95;;;6.60;99.90;;;;;;5052471;28;20078;-53
2022/02/28 08:35:10;;;;;;;16.05;8.15;;;7.00;99.90;;;;;;5052688;28;20025;-53
2022/02/28 08:37:36;;;;;;;14.25;8.20;;;7.20;99.90;;;;;;5052844;28;20039;-53
2022/02/28 08:40:02;;;;;;;15.95;8.18;;;7.40;99.90;;;;;;5052809;28;20040;-53
2022/02/28 08:42:27;;;;;;;16.00;8.60;;;7.40;99.90;;;;;;5053252;28;20036;-53
2022/02/28 08:44:53;;;;;;;12.35;8.07;;;7.80;99.90;;;;;;5052505;28;20100;-53
2022/02/28 08:47:19;;;;;;;17.65;8.23;;;8.00;99.90;;;;;;5052456;28;20482;-53
2022/02/28 08:49:45;;;;;;;13.00;7.90;;;8.30;99.90;;;;;;5052433;28;20029;-53
2022/02/28 08:52:10;;;;;;;13.05;7.97;;;8.30;99.90;;;;;;5051494;28;20398;-54
2022/02/28 08:54:36;;;;;;;15.05;7.93;;;8.30;99.90;;;;;;5053122;28;20029;-53
2022/02/28 08:57:03;;;;;;;11.23;7.35;;;8.40;99.90;;;;;;5051800;28;20064;-54
2022/02/28 08:59:30;;;;;;;11.98;7.63;;;8.10;99.90;;;;;;5053301;28;20573;-54
2022/02/28 09:01:56;;;;;;;13.82;7.93;;;8.40;99.90;;;;;;5053075;28;20025;-54
2022/02/28 09:04:22;;;;;;;11.70;7.15;;;8.50;99.90;;;;;;5053312;28;20343;-54
2022/02/28 09:06:53;;;;;;;15.25;7.93;;;8.60;99.90;;;;;;5052369;28;20024;-53
2022/02/28 09:09:18;;;;;;;11.50;7.70;;;8.40;99.90;;;;;;5052265;28;20029;-54
2022/02/28 09:11:44;;;;;;;14.00;7.50;;;8.60;99.90;;;;;;5052540;28;20048;-54
2022/02/28 09:14:10;;;;;;;12.45;7.68;;;8.50;99.90;;;;;;5051979;28;20028;-54
2022/02/28 09:16:35;;;;;;;12.93;7.78;;;8.60;99.90;;;;;;5051543;28;20472;-54
2022/02/28 09:19:01;;;;;;;13.60;7.40;;;8.80;99.90;;;;;;5051226;28;20079;-54
2022/02/28 09:21:27;;;;;;;12.38;7.63;;;8.90;99.90;;;;;;5052583;28;20032;-54
2022/02/28 09:23:53;;;;;;;13.55;7.28;;;9.60;99.90;;;;;;5052158;28;20108;-54
2022/02/28 09:26:20;;;;;;;10.45;7.35;;;9.80;99.00;;;;;;5049548;28;20474;-55
2022/02/28 09:28:46;;;;;;;10.85;7.20;;;10.00;98.30;;;;;;5051476;28;20430;-55
2022/02/28 09:31:11;;;;;;;10.85;6.80;;;10.10;97.60;;;;;;5052822;28;20068;-54
2022/02/28 09:33:37;;;;;;;10.13;6.55;;;9.90;97.20;;;;;;5051045;28;20031;-54
2022/02/28 09:36:04;;;;;;;11.43;6.95;;;10.00;97.90;;;;;;5055240;28;20056;-54
2022/02/28 09:38:30;;;;;;;10.75;7.13;;;9.90;96.90;;;;;;5052930;28;20037;-54
2022/02/28 09:40:57;;;;;;;13.05;6.75;;;9.80;97.30;;;;;;5059354;28;20548;-54
2022/02/28 09:43:23;;;;;;;11.73;6.80;;;9.90;97.00;;;;;;5056509;28;20029;-54
2022/02/28 09:45:52;;;;;;;8.00;5.93;;;9.80;96.70;;;;;;5051638;28;20482;-54
2022/02/28 09:48:18;;;;;;;9.80;6.75;;;9.90;96.40;;;;;;5051291;28;20036;-54
2022/02/28 09:50:44;;;;;;;12.55;7.25;;;9.70;96.80;;;;;;5053014;28;20037;-54
2022/02/28 09:53:10;;;;;;;15.45;7.40;;;9.70;97.10;;;;;;5055395;28;20071;-54
2022/02/28 09:55:35;;;;;;;11.98;6.93;;;9.90;96.80;;;;;;5051931;28;20033;-54
2022/02/28 09:58:02;;;;;;;14.40;7.25;;;9.90;96.10;;;;;;5051556;28;20095;-54
2022/02/28 10:00:28;;;;;;;12.57;7.22;;;9.90;96.50;;;;;;5054075;28;20025;-54
2022/02/28 10:02:56;;;;;;;10.13;6.53;;;9.90;96.20;;;;;;5054015;28;20024;-54
2022/02/28 10:05:25;;;;;;;12.88;6.50;;;9.70;96.20;;;;;;5052720;28;20045;-54
2022/02/28 10:07:55;;;;;;;9.10;6.75;;;9.80;96.40;;;;;;5061633;28;20033;-54
2022/02/28 10:10:23;;;;;;;10.68;6.85;;;10.00;97.20;;;;;;5031428;28;20037;-54
2022/02/28 10:12:49;;;;;;;11.88;6.72;;;10.20;95.50;;;;;;5031756;28;20017;-54
2022/02/28 10:15:18;;;;;;;10.55;7.78;;;10.40;95.60;;;;;;5030943;28;20077;-54
2022/02/28 10:17:51;;;;;;;9.48;6.78;;;10.20;95.70;;;;;;5031492;28;20029;-54
2022/02/28 10:20:21;;;;;;;10.35;6.80;;;10.30;95.40;;;;;;5031855;28;20046;-54
2022/02/28 10:22:57;;;;;;;7.97;6.32;;;10.20;95.50;;;;;;5031394;28;20024;-54
2022/02/28 10:25:51;;;;;;;8.77;6.18;;;10.20;95.30;;;;;;5031755;28;20022;-54
2022/02/28 10:28:25;;;;;;;10.52;6.85;;;10.50;94.60;;;;;;5030559;28;20025;-54
2022/02/28 10:30:52;;;;;;;9.68;6.82;;;10.70;94.60;;;;;;5030317;28;20517;-54
2022/02/28 10:33:18;;;;;;;9.45;6.80;;;10.80;93.90;;;;;;5031908;28;20026;-54
2022/02/28 10:36:01;;;;;;;12.75;7.20;;;11.10;94.20;;;;;;5032421;28;20096;-54
2022/02/28 10:38:31;;;;;;;;;;;11.30;93.40;;;;;;5031882;28;20033;-54
2022/02/28 10:40:57;;;;;;;8.38;6.00;;;11.50;92.10;;;;;;5030671;28;19912;-55
2022/02/28 10:43:27;;;;;;;14.43;7.05;;;11.40;92.40;;;;;;5030675;28;20077;-54
2022/02/28 10:45:54;;;;;;;9.70;6.80;;;11.60;92.70;;;;;;5030278;28;20029;-54
2022/02/28 10:48:21;;;;;;;11.07;6.55;;;12.00;92.40;;;;;;5030643;28;20065;-55
2022/02/28 10:50:47;;;;;;;10.63;6.22;;;12.20;90.90;;;;;;5030567;28;20096;-54
2022/02/28 10:53:14;;;;;;;9.57;6.32;;;12.00;90.80;;;;;;5030163;28;20064;-54
2022/02/28 10:55:40;;;;;;;9.27;6.80;;;11.90;91.40;;;;;;5030886;28;20387;-54
2022/02/28 10:58:10;;;;;;;9.38;6.82;;;12.00;91.10;;;;;;5031169;28;20383;-54
2022/02/28 11:00:59;;;;;;;11.35;6.40;;;12.00;91.70;;;;;;5030731;28;20368;-54
2022/02/28 11:03:28;;;;;;;9.80;6.88;;;12.70;90.70;;;;;;5030346;28;20026;-54
2022/02/28 11:05:58;;;;;;;9.57;5.97;;;12.60;90.50;;;;;;5030680;28;20076;-54
2022/02/28 11:08:25;;;;;;;9.98;6.88;;;12.70;90.50;;;;;;5030888;28;20394;-55
2022/02/28 11:10:53;;;;;;;10.20;7.57;;;12.60;90.00;;;;;;5030234;28;20076;-54
2022/02/28 11:13:21;;;;;;;9.93;6.72;;;12.40;90.50;;;;;;5030344;28;20018;-55
2022/02/28 11:15:48;;;;;;;10.20;6.75;;;12.50;90.50;;;;;;5029946;28;20029;-54
2022/02/28 11:18:20;;;;;;;9.48;6.85;;;12.60;90.40;;;;;;5030697;28;20382;-55
2022/02/28 11:20:47;;;;;;;12.02;6.90;;;13.10;90.00;;;;;;5030900;28;20017;-54
2022/02/28 11:23:18;;;;;;;9.70;6.70;;;13.70;87.70;;;;;;5029994;28;20026;-54
2022/02/28 11:25:45;;;;;;;8.15;6.35;;;13.70;88.60;;;;;;5030232;28;20108;-55
2022/02/28 11:28:10;;;;;;;9.10;6.45;;;13.60;86.30;;;;;;5030150;28;20036;-56
2022/02/28 11:30:36;;;;;;;11.23;6.65;;;13.40;87.80;;;;;;5030348;28;20495;-55
2022/02/28 11:33:05;;;;;;;11.93;7.03;;;13.50;85.10;;;;;;5030314;28;20063;-56
2022/02/28 11:35:49;;;;;;;9.70;6.65;;;13.40;85.70;;;;;;5030392;28;20124;-56
2022/02/28 11:38:17;;;;;;;9.20;5.93;;;13.80;85.50;;;;;;5030381;28;20510;-56
2022/02/28 11:40:57;;;;;;;7.15;5.90;;;14.30;83.10;;;;;;5030948;28;20084;-56
2022/02/28 11:43:24;;;;;;;10.20;6.05;;;14.50;82.30;;;;;;5029835;28;20030;-56
2022/02/28 11:46:00;;;;;;;9.18;6.32;;;14.40;80.30;;;;;;5030204;28;20029;-56
2022/02/28 11:48:49;;;;;;;11.07;7.47;;;14.10;82.60;;;;;;5029892;28;20037;-56
2022/02/28 11:51:23;;;;;;;9.73;6.60;;;14.60;82.10;;;;;;5030623;28;20033;-57
2022/02/28 11:54:15;;;;;;;11.35;6.85;;;15.20;80.70;;;;;;5030453;28;20034;-56
2022/02/28 11:56:40;;;;;;;10.43;6.30;;;15.10;78.10;;;;;;5029170;28;20034;-56
2022/02/28 11:59:12;;;;;;;11.73;7.32;;;14.80;78.70;;;;;;5034225;28;20040;-56
2022/02/28 12:01:41;;;;;;;7.70;5.60;;;14.80;78.80;;;;;;5033536;28;20025;-56
2022/02/28 12:04:06;;;;;;;9.43;6.88;;;15.20;77.10;;;;;;5034335;28;20271;-56
2022/02/28 12:07:04;;;;;;;10.88;6.65;;;15.50;76.50;;;;;;5034029;28;20433;-57
2022/02/28 12:09:33;;;;;;;9.48;6.40;;;15.60;76.30;;;;;;5033737;28;20037;-57
2022/02/28 12:12:27;;;;;;;10.38;6.05;;;15.60;76.80;;;;;;5033507;28;20423;-56
2022/02/28 12:14:56;;;;;;;13.38;8.05;;;15.30;74.90;;;;;;5033875;28;20026;-56
2022/02/28 12:17:44;;;;;;;13.75;7.95;;;15.30;77.50;;;;;;5033598;28;20033;-56
2022/02/28 12:20:18;;;;;;;11.10;7.57;;;15.10;77.50;;;;;;5029883;28;20037;-56
2022/02/28 12:22:56;;;;;;;11.85;7.40;;;15.20;76.80;;;;;;5034221;28;20101;-56
2022/02/28 12:25:49;;;;;;;9.30;6.38;;;15.30;78.20;;;;;;5033289;28;20537;-56
2022/02/28 12:28:26;;;;;;;13.75;6.90;;;16.00;74.00;;;;;;5032597;28;20025;-56
2022/02/28 12:30:59;;;;;;;10.85;6.97;;;15.90;74.10;;;;;;5032582;28;20045;-56
2022/02/28 12:33:34;;;;;;;9.30;6.70;;;15.20;75.40;;;;;;5032724;28;20032;-57
2022/02/28 12:36:08;;;;;;;8.50;6.93;;;15.90;73.20;;;;;;5032212;28;20091;-57
2022/02/28 12:38:37;;;;;;;10.63;7.68;;;16.10;72.70;;;;;;5032483;28;20045;-57
2022/02/28 12:41:09;;;;;;;11.07;7.90;;;15.90;71.70;;;;;;5032534;28;20504;-56
2022/02/28 12:43:36;;;;;;;9.80;6.35;;;16.40;70.60;;;;;;5032774;28;20160;-56
2022/02/28 12:46:17;;;;;;;8.85;6.70;;;15.70;72.10;;;;;;5033166;28;20029;-56
2022/02/28 12:48:45;;;;;;;9.80;7.43;;;15.60;69.70;;;;;;5032594;28;20105;-57